Aeroporto :
LOGIN :

Iscrizione | Disclaimer

   EN    FR    IT 

 










Sommario :    VFR   VFR Marginale   IFR   IFR Intensivo   IFR Molto Intensivo
Visibilità : 
Base nubi : 
>= 8 km
>= 3000ft
5 / 8 km
1000 / 3000 ft
1500m / 5 km
500 / 1000 ft
800 / 1500m
200 / 500 ft
< 800m
< 200 ft
Simboli :   Temporali  Nebbia  Neve Forte  Precipitazioni Forti  Vento > 20 kt
SIGMETs :   Varie  Temporali  Ghiacco  Turbolenza  Onda orograficha  Ceneri Vulcaniche







- Altitudine del aeroporto : 122 ft
- Codice IATA : TXL


EDDT - Berlin Tegel Int.

ULTIMO METAR :
  • 251120Z 13011KT 090V160 CAVOK 29/13 Q1021 NOSIG

METARs OBSOLETI :
  • 251050Z 13012KT 100V160 CAVOK 29/13 Q1021 NOSIG
  • 251020Z 14012KT CAVOK 29/14 Q1021 NOSIG
  • 250950Z 13012KT CAVOK 28/14 Q1021 NOSIG
  • 250920Z 13011KT 100V160 CAVOK 27/14 Q1021 NOSIG
  • 250850Z 13008KT 070V160 CAVOK 27/15 Q1021 NOSIG

TAF TAF EDDT
Valido dal 25 a 12 ore il 26 a 12 ore UTC


251100Z 2512/2612 12011KT CAVOK
BECMG 2516/2519 09006KT
Nessun NOTAM noto per questo aeroporto.



MetMap, La meteo Aeronautica in un colpo d'occhio ! - Copyright ORBIFLY Dicembre 2007 - Disclaimer

ORBIFLY MET'MAP TEAM :

Programmazione e sviluppo : Alexandra Zaïnal
Concezione e sviluppo : Baudouin d'Aumeries
Co-Programmazione e sviluppo : Marc-Olivier Méhu
Supporto tecnico e logistico : Manuel Goepfert
Aiuto per la traduzione : Arnaldo La Scala

Contatto : metmap@orbifly.com




FONTI E CREDITI :

   NOAA